KNQX/NQX METAR and TAF weather

Enter ICAO airport designator
Station Type Date Time Source
KNQX METAR 2020/07/06 02:20 UTC NOAA

KNQX 060220Z AUTO 12003KT 10SM CLR 31/24 A3001 RMK AO2 TSB0154B0155E14 T03110244 $


Station Type Date Time Source
KNQX Decoded METAR 2020/07/06 02:20 UTC NOAA

KEY WEST NAVAL AIR STATION, FL, United States (KNQX) 24-35N 81-41W 6M
Jul 05, 2020 - 10:20 PM EDT / 2020.07.06 0220 UTC
Wind: from the ESE (120 degrees) at 3 MPH (3 KT):0
Visibility: 10 mile(s):0
Sky conditions: clear
Temperature: 88.0 F (31.1 C)
Heat index: 98.6 F (37.0 C):1
Dew Point: 75.9 F (24.4 C)
Relative Humidity: 67%
Pressure (altimeter): 30.01 in. Hg (1016 hPa)
ob: KNQX 060220Z AUTO 12003KT 10SM CLR 31/24 A3001 RMK AO2 TSB0154B0155E14 T03110244
cycle: 2

Station Type Date Time Source
KNQX TAF 2020/07/06 01:38 UTC NOAA

TAF
AMD KNQX 0601/0623 18007KT VCTS 9999 SCT025CB BKN180 BKN250 QNH2992NS
FM060500 VRB05KT 9999 FEW020 SCT180 QNH2993INS AUTOMATED SENSOR METWATCH 0523 TIL 0610 T28/0610Z T33/0620Z
AMD 0120 FN00214

Example: see airport list